<?xml version="1.0" encoding="UTF-8" standalone="no" ?>
<gpx xmlns="http://www.topografix.com/GPX/1/1" xmlns:xsi="http://www.w3.org/2001/XMLSchema-instance" xsi:schemaLocation="http://www.topografix.com/GPX/1/1 http://www.topografix.com/GPX/1/1/gpx.xsd" version="1.1" creator="VisuGPX - https://www.visugpx.com">
  <metadata>
    <name>Aubusson athis 32km</name>
  </metadata>
  <trk>
    <name><![CDATA[Aubusson athis 32km_1]]></name>
    <trkseg>
      <trkpt lat="48.74795" lon="-0.57223">
        <ele>203</ele>
        <time>1989-12-31T00:00:00Z</time>
      </trkpt>
      <trkpt lat="48.74807" lon="-0.57231">
        <ele>205.8</ele>
        <time>1989-12-31T00:00:02Z</time>
      </trkpt>
      <trkpt lat="48.74777" lon="-0.57201">
        <ele>205.4</ele>
        <time>1989-12-31T00:00:09Z</time>
      </trkpt>
      <trkpt lat="48.74861" lon="-0.5702">
        <ele>210.2</ele>
        <time>1989-12-31T00:00:40Z</time>
      </trkpt>
      <trkpt lat="48.75033" lon="-0.57123">
        <ele>212.2</ele>
        <time>1989-12-31T00:01:18Z</time>
      </trkpt>
      <trkpt lat="48.75406" lon="-0.57352">
        <ele>207.8</ele>
        <time>1989-12-31T00:02:42Z</time>
      </trkpt>
      <trkpt lat="48.75441" lon="-0.57264">
        <ele>206.8</ele>
        <time>1989-12-31T00:02:56Z</time>
      </trkpt>
      <trkpt lat="48.75481" lon="-0.57282">
        <ele>206.4</ele>
        <time>1989-12-31T00:03:04Z</time>
      </trkpt>
      <trkpt lat="48.75533" lon="-0.57329">
        <ele>209.2</ele>
        <time>1989-12-31T00:03:17Z</time>
      </trkpt>
      <trkpt lat="48.75732" lon="-0.57546">
        <ele>210.6</ele>
        <time>1989-12-31T00:04:08Z</time>
      </trkpt>
      <trkpt lat="48.75823" lon="-0.57187">
        <ele>217</ele>
        <time>1989-12-31T00:05:00Z</time>
      </trkpt>
      <trkpt lat="48.75957" lon="-0.56829">
        <ele>228</ele>
        <time>1989-12-31T00:05:57Z</time>
      </trkpt>
      <trkpt lat="48.76179" lon="-0.56904">
        <ele>226.6</ele>
        <time>1989-12-31T00:06:44Z</time>
      </trkpt>
      <trkpt lat="48.76279" lon="-0.56995">
        <ele>230.8</ele>
        <time>1989-12-31T00:07:08Z</time>
      </trkpt>
      <trkpt lat="48.76342" lon="-0.57023">
        <ele>229.4</ele>
        <time>1989-12-31T00:07:21Z</time>
      </trkpt>
      <trkpt lat="48.76359" lon="-0.56872">
        <ele>237.2</ele>
        <time>1989-12-31T00:07:42Z</time>
      </trkpt>
      <trkpt lat="48.76379" lon="-0.56443">
        <ele>251</ele>
        <time>1989-12-31T00:08:41Z</time>
      </trkpt>
      <trkpt lat="48.7641" lon="-0.56247">
        <ele>248.2</ele>
        <time>1989-12-31T00:09:09Z</time>
      </trkpt>
      <trkpt lat="48.76512" lon="-0.56293">
        <ele>244.8</ele>
        <time>1989-12-31T00:09:31Z</time>
      </trkpt>
      <trkpt lat="48.76663" lon="-0.56478">
        <ele>239.6</ele>
        <time>1989-12-31T00:10:11Z</time>
      </trkpt>
      <trkpt lat="48.76687" lon="-0.56489">
        <ele>239</ele>
        <time>1989-12-31T00:10:16Z</time>
      </trkpt>
      <trkpt lat="48.76957" lon="-0.56377">
        <ele>240.4</ele>
        <time>1989-12-31T00:11:14Z</time>
      </trkpt>
      <trkpt lat="48.77068" lon="-0.5634">
        <ele>238.6</ele>
        <time>1989-12-31T00:11:38Z</time>
      </trkpt>
      <trkpt lat="48.7711" lon="-0.56328">
        <ele>237.2</ele>
        <time>1989-12-31T00:11:47Z</time>
      </trkpt>
      <trkpt lat="48.77114" lon="-0.56177">
        <ele>229.4</ele>
        <time>1989-12-31T00:12:07Z</time>
      </trkpt>
      <trkpt lat="48.77161" lon="-0.56024">
        <ele>221.8</ele>
        <time>1989-12-31T00:12:31Z</time>
      </trkpt>
      <trkpt lat="48.77156" lon="-0.55943">
        <ele>223.2</ele>
        <time>1989-12-31T00:12:42Z</time>
      </trkpt>
      <trkpt lat="48.77144" lon="-0.5591">
        <ele>223.6</ele>
        <time>1989-12-31T00:12:47Z</time>
      </trkpt>
      <trkpt lat="48.77032" lon="-0.5582">
        <ele>233.2</ele>
        <time>1989-12-31T00:13:13Z</time>
      </trkpt>
      <trkpt lat="48.76982" lon="-0.55797">
        <ele>234.6</ele>
        <time>1989-12-31T00:13:24Z</time>
      </trkpt>
      <trkpt lat="48.7696" lon="-0.55757">
        <ele>235.6</ele>
        <time>1989-12-31T00:13:31Z</time>
      </trkpt>
      <trkpt lat="48.77048" lon="-0.55549">
        <ele>229</ele>
        <time>1989-12-31T00:14:05Z</time>
      </trkpt>
      <trkpt lat="48.77064" lon="-0.55553">
        <ele>229</ele>
        <time>1989-12-31T00:14:08Z</time>
      </trkpt>
      <trkpt lat="48.77154" lon="-0.55705">
        <ele>224.6</ele>
        <time>1989-12-31T00:14:36Z</time>
      </trkpt>
      <trkpt lat="48.77211" lon="-0.55717">
        <ele>226.6</ele>
        <time>1989-12-31T00:14:48Z</time>
      </trkpt>
      <trkpt lat="48.7718" lon="-0.55505">
        <ele>242</ele>
        <time>1989-12-31T00:15:18Z</time>
      </trkpt>
      <trkpt lat="48.77176" lon="-0.5547">
        <ele>242.4</ele>
        <time>1989-12-31T00:15:23Z</time>
      </trkpt>
      <trkpt lat="48.77178" lon="-0.55345">
        <ele>248.6</ele>
        <time>1989-12-31T00:15:40Z</time>
      </trkpt>
      <trkpt lat="48.77177" lon="-0.55286">
        <ele>249.6</ele>
        <time>1989-12-31T00:15:48Z</time>
      </trkpt>
      <trkpt lat="48.77204" lon="-0.55126">
        <ele>249.2</ele>
        <time>1989-12-31T00:16:11Z</time>
      </trkpt>
      <trkpt lat="48.77438" lon="-0.55193">
        <ele>268.4</ele>
        <time>1989-12-31T00:17:00Z</time>
      </trkpt>
      <trkpt lat="48.77536" lon="-0.552">
        <ele>270.8</ele>
        <time>1989-12-31T00:17:21Z</time>
      </trkpt>
      <trkpt lat="48.77594" lon="-0.55195">
        <ele>271.8</ele>
        <time>1989-12-31T00:17:33Z</time>
      </trkpt>
      <trkpt lat="48.77801" lon="-0.55159">
        <ele>273.6</ele>
        <time>1989-12-31T00:18:16Z</time>
      </trkpt>
      <trkpt lat="48.77942" lon="-0.55153">
        <ele>271.8</ele>
        <time>1989-12-31T00:18:45Z</time>
      </trkpt>
      <trkpt lat="48.78394" lon="-0.55176">
        <ele>255.4</ele>
        <time>1989-12-31T00:20:19Z</time>
      </trkpt>
      <trkpt lat="48.78408" lon="-0.55149">
        <ele>255.4</ele>
        <time>1989-12-31T00:20:24Z</time>
      </trkpt>
      <trkpt lat="48.78412" lon="-0.55007">
        <ele>246.2</ele>
        <time>1989-12-31T00:20:43Z</time>
      </trkpt>
      <trkpt lat="48.78458" lon="-0.54748">
        <ele>239.6</ele>
        <time>1989-12-31T00:21:20Z</time>
      </trkpt>
      <trkpt lat="48.78546" lon="-0.54467">
        <ele>253</ele>
        <time>1989-12-31T00:22:02Z</time>
      </trkpt>
      <trkpt lat="48.78563" lon="-0.54409">
        <ele>253.4</ele>
        <time>1989-12-31T00:22:11Z</time>
      </trkpt>
      <trkpt lat="48.78719" lon="-0.53923">
        <ele>227</ele>
        <time>1989-12-31T00:23:25Z</time>
      </trkpt>
      <trkpt lat="48.78737" lon="-0.53905">
        <ele>225.6</ele>
        <time>1989-12-31T00:23:30Z</time>
      </trkpt>
      <trkpt lat="48.78849" lon="-0.53983">
        <ele>224.6</ele>
        <time>1989-12-31T00:23:55Z</time>
      </trkpt>
      <trkpt lat="48.78897" lon="-0.53999">
        <ele>225</ele>
        <time>1989-12-31T00:24:05Z</time>
      </trkpt>
      <trkpt lat="48.78932" lon="-0.5398">
        <ele>225</ele>
        <time>1989-12-31T00:24:13Z</time>
      </trkpt>
      <trkpt lat="48.79106" lon="-0.53935">
        <ele>220.8</ele>
        <time>1989-12-31T00:24:50Z</time>
      </trkpt>
      <trkpt lat="48.79313" lon="-0.53938">
        <ele>218.8</ele>
        <time>1989-12-31T00:25:33Z</time>
      </trkpt>
      <trkpt lat="48.79394" lon="-0.53929">
        <ele>217</ele>
        <time>1989-12-31T00:25:50Z</time>
      </trkpt>
      <trkpt lat="48.79447" lon="-0.53935">
        <ele>211.2</ele>
        <time>1989-12-31T00:26:01Z</time>
      </trkpt>
      <trkpt lat="48.79518" lon="-0.53991">
        <ele>205.8</ele>
        <time>1989-12-31T00:26:17Z</time>
      </trkpt>
      <trkpt lat="48.79514" lon="-0.53887">
        <ele>203.4</ele>
        <time>1989-12-31T00:26:31Z</time>
      </trkpt>
      <trkpt lat="48.79558" lon="-0.53796">
        <ele>201</ele>
        <time>1989-12-31T00:26:47Z</time>
      </trkpt>
      <trkpt lat="48.7959" lon="-0.53653">
        <ele>204.4</ele>
        <time>1989-12-31T00:27:08Z</time>
      </trkpt>
      <trkpt lat="48.79767" lon="-0.53703">
        <ele>202</ele>
        <time>1989-12-31T00:27:45Z</time>
      </trkpt>
      <trkpt lat="48.79794" lon="-0.53649">
        <ele>205.4</ele>
        <time>1989-12-31T00:27:54Z</time>
      </trkpt>
      <trkpt lat="48.79815" lon="-0.53642">
        <ele>208.2</ele>
        <time>1989-12-31T00:27:59Z</time>
      </trkpt>
      <trkpt lat="48.79812" lon="-0.53637">
        <ele>204.8</ele>
        <time>1989-12-31T00:28:00Z</time>
      </trkpt>
      <trkpt lat="48.79872" lon="-0.5366">
        <ele>204.8</ele>
        <time>1989-12-31T00:28:12Z</time>
      </trkpt>
      <trkpt lat="48.79939" lon="-0.53715">
        <ele>203.4</ele>
        <time>1989-12-31T00:28:28Z</time>
      </trkpt>
      <trkpt lat="48.80031" lon="-0.53839">
        <ele>199.6</ele>
        <time>1989-12-31T00:28:54Z</time>
      </trkpt>
      <trkpt lat="48.80133" lon="-0.53944">
        <ele>199.2</ele>
        <time>1989-12-31T00:29:19Z</time>
      </trkpt>
      <trkpt lat="48.80221" lon="-0.54052">
        <ele>197.2</ele>
        <time>1989-12-31T00:29:43Z</time>
      </trkpt>
      <trkpt lat="48.80253" lon="-0.54064">
        <ele>196.8</ele>
        <time>1989-12-31T00:29:50Z</time>
      </trkpt>
      <trkpt lat="48.8037" lon="-0.54214">
        <ele>179</ele>
        <time>1989-12-31T00:30:21Z</time>
      </trkpt>
      <trkpt lat="48.80487" lon="-0.54252">
        <ele>167.4</ele>
        <time>1989-12-31T00:30:46Z</time>
      </trkpt>
      <trkpt lat="48.80555" lon="-0.54252">
        <ele>167.4</ele>
        <time>1989-12-31T00:31:00Z</time>
      </trkpt>
      <trkpt lat="48.80616" lon="-0.5422">
        <ele>167</ele>
        <time>1989-12-31T00:31:14Z</time>
      </trkpt>
      <trkpt lat="48.80658" lon="-0.54166">
        <ele>167</ele>
        <time>1989-12-31T00:31:25Z</time>
      </trkpt>
      <trkpt lat="48.8068" lon="-0.54145">
        <ele>166</ele>
        <time>1989-12-31T00:31:31Z</time>
      </trkpt>
      <trkpt lat="48.80708" lon="-0.54195">
        <ele>165</ele>
        <time>1989-12-31T00:31:40Z</time>
      </trkpt>
      <trkpt lat="48.80691" lon="-0.54303">
        <ele>168.4</ele>
        <time>1989-12-31T00:31:55Z</time>
      </trkpt>
      <trkpt lat="48.8084" lon="-0.54333">
        <ele>182.4</ele>
        <time>1989-12-31T00:32:26Z</time>
      </trkpt>
      <trkpt lat="48.80884" lon="-0.54375">
        <ele>185.6</ele>
        <time>1989-12-31T00:32:37Z</time>
      </trkpt>
      <trkpt lat="48.80934" lon="-0.54474">
        <ele>198.2</ele>
        <time>1989-12-31T00:32:54Z</time>
      </trkpt>
      <trkpt lat="48.81035" lon="-0.5468">
        <ele>204.8</ele>
        <time>1989-12-31T00:33:29Z</time>
      </trkpt>
      <trkpt lat="48.8114" lon="-0.547">
        <ele>208.8</ele>
        <time>1989-12-31T00:33:51Z</time>
      </trkpt>
      <trkpt lat="48.81284" lon="-0.54689">
        <ele>217.4</ele>
        <time>1989-12-31T00:34:21Z</time>
      </trkpt>
      <trkpt lat="48.81354" lon="-0.54699">
        <ele>219.8</ele>
        <time>1989-12-31T00:34:35Z</time>
      </trkpt>
      <trkpt lat="48.81382" lon="-0.54721">
        <ele>219.8</ele>
        <time>1989-12-31T00:34:42Z</time>
      </trkpt>
      <trkpt lat="48.81441" lon="-0.54751">
        <ele>218.4</ele>
        <time>1989-12-31T00:34:55Z</time>
      </trkpt>
      <trkpt lat="48.81566" lon="-0.54769">
        <ele>211.6</ele>
        <time>1989-12-31T00:35:21Z</time>
      </trkpt>
      <trkpt lat="48.81922" lon="-0.54691">
        <ele>210.2</ele>
        <time>1989-12-31T00:36:36Z</time>
      </trkpt>
      <trkpt lat="48.8212" lon="-0.54627">
        <ele>204.8</ele>
        <time>1989-12-31T00:37:18Z</time>
      </trkpt>
      <trkpt lat="48.82283" lon="-0.54607">
        <ele>202</ele>
        <time>1989-12-31T00:37:52Z</time>
      </trkpt>
      <trkpt lat="48.82382" lon="-0.54649">
        <ele>202</ele>
        <time>1989-12-31T00:38:13Z</time>
      </trkpt>
      <trkpt lat="48.82412" lon="-0.5464">
        <ele>202</ele>
        <time>1989-12-31T00:38:19Z</time>
      </trkpt>
      <trkpt lat="48.82573" lon="-0.54526">
        <ele>202.4</ele>
        <time>1989-12-31T00:38:56Z</time>
      </trkpt>
      <trkpt lat="48.82685" lon="-0.54442">
        <ele>199.6</ele>
        <time>1989-12-31T00:39:22Z</time>
      </trkpt>
      <trkpt lat="48.82702" lon="-0.54436">
        <ele>199.6</ele>
        <time>1989-12-31T00:39:26Z</time>
      </trkpt>
      <trkpt lat="48.82701" lon="-0.54431">
        <ele>202.4</ele>
        <time>1989-12-31T00:39:27Z</time>
      </trkpt>
      <trkpt lat="48.8276" lon="-0.54351">
        <ele>202.4</ele>
        <time>1989-12-31T00:39:43Z</time>
      </trkpt>
      <trkpt lat="48.82857" lon="-0.54241">
        <ele>204.4</ele>
        <time>1989-12-31T00:40:08Z</time>
      </trkpt>
      <trkpt lat="48.82941" lon="-0.54086">
        <ele>202.4</ele>
        <time>1989-12-31T00:40:36Z</time>
      </trkpt>
      <trkpt lat="48.82837" lon="-0.54019">
        <ele>208.2</ele>
        <time>1989-12-31T00:40:59Z</time>
      </trkpt>
      <trkpt lat="48.82703" lon="-0.53958">
        <ele>207.4</ele>
        <time>1989-12-31T00:41:28Z</time>
      </trkpt>
      <trkpt lat="48.8259" lon="-0.53869">
        <ele>206.4</ele>
        <time>1989-12-31T00:41:55Z</time>
      </trkpt>
      <trkpt lat="48.82704" lon="-0.53701">
        <ele>204.4</ele>
        <time>1989-12-31T00:42:27Z</time>
      </trkpt>
      <trkpt lat="48.82749" lon="-0.53615">
        <ele>204.4</ele>
        <time>1989-12-31T00:42:43Z</time>
      </trkpt>
      <trkpt lat="48.82727" lon="-0.53569">
        <ele>203.4</ele>
        <time>1989-12-31T00:42:50Z</time>
      </trkpt>
      <trkpt lat="48.82592" lon="-0.53388">
        <ele>205.8</ele>
        <time>1989-12-31T00:43:28Z</time>
      </trkpt>
      <trkpt lat="48.82575" lon="-0.5334">
        <ele>203.4</ele>
        <time>1989-12-31T00:43:35Z</time>
      </trkpt>
      <trkpt lat="48.82568" lon="-0.53168">
        <ele>199.2</ele>
        <time>1989-12-31T00:43:59Z</time>
      </trkpt>
      <trkpt lat="48.82563" lon="-0.53144">
        <ele>198.2</ele>
        <time>1989-12-31T00:44:02Z</time>
      </trkpt>
      <trkpt lat="48.82545" lon="-0.53085">
        <ele>193.8</ele>
        <time>1989-12-31T00:44:11Z</time>
      </trkpt>
      <trkpt lat="48.82557" lon="-0.53024">
        <ele>192.8</ele>
        <time>1989-12-31T00:44:20Z</time>
      </trkpt>
      <trkpt lat="48.82593" lon="-0.52993">
        <ele>192.4</ele>
        <time>1989-12-31T00:44:28Z</time>
      </trkpt>
      <trkpt lat="48.82619" lon="-0.52972">
        <ele>190</ele>
        <time>1989-12-31T00:44:35Z</time>
      </trkpt>
      <trkpt lat="48.82644" lon="-0.52908">
        <ele>188</ele>
        <time>1989-12-31T00:44:45Z</time>
      </trkpt>
      <trkpt lat="48.82576" lon="-0.52976">
        <ele>176.6</ele>
        <time>1989-12-31T00:45:01Z</time>
      </trkpt>
      <trkpt lat="48.82518" lon="-0.52998">
        <ele>171.2</ele>
        <time>1989-12-31T00:45:14Z</time>
      </trkpt>
      <trkpt lat="48.8249" lon="-0.53004">
        <ele>167.4</ele>
        <time>1989-12-31T00:45:20Z</time>
      </trkpt>
      <trkpt lat="48.82479" lon="-0.5306">
        <ele>162.2</ele>
        <time>1989-12-31T00:45:28Z</time>
      </trkpt>
      <trkpt lat="48.82465" lon="-0.53057">
        <ele>162.2</ele>
        <time>1989-12-31T00:45:31Z</time>
      </trkpt>
      <trkpt lat="48.82455" lon="-0.53009">
        <ele>157.4</ele>
        <time>1989-12-31T00:45:37Z</time>
      </trkpt>
      <trkpt lat="48.82554" lon="-0.52897">
        <ele>145.2</ele>
        <time>1989-12-31T00:46:03Z</time>
      </trkpt>
      <trkpt lat="48.82619" lon="-0.52735">
        <ele>129.4</ele>
        <time>1989-12-31T00:46:29Z</time>
      </trkpt>
      <trkpt lat="48.82629" lon="-0.52663">
        <ele>132.4</ele>
        <time>1989-12-31T00:46:39Z</time>
      </trkpt>
      <trkpt lat="48.82615" lon="-0.52649">
        <ele>134.2</ele>
        <time>1989-12-31T00:46:43Z</time>
      </trkpt>
      <trkpt lat="48.82469" lon="-0.52766">
        <ele>159.8</ele>
        <time>1989-12-31T00:47:17Z</time>
      </trkpt>
      <trkpt lat="48.82389" lon="-0.52803">
        <ele>180</ele>
        <time>1989-12-31T00:47:34Z</time>
      </trkpt>
      <trkpt lat="48.82367" lon="-0.52796">
        <ele>184.2</ele>
        <time>1989-12-31T00:47:39Z</time>
      </trkpt>
      <trkpt lat="48.82369" lon="-0.52767">
        <ele>187.6</ele>
        <time>1989-12-31T00:47:43Z</time>
      </trkpt>
      <trkpt lat="48.82364" lon="-0.52712">
        <ele>193.4</ele>
        <time>1989-12-31T00:47:51Z</time>
      </trkpt>
      <trkpt lat="48.82344" lon="-0.52522">
        <ele>199.2</ele>
        <time>1989-12-31T00:48:17Z</time>
      </trkpt>
      <trkpt lat="48.82308" lon="-0.52412">
        <ele>196.2</ele>
        <time>1989-12-31T00:48:34Z</time>
      </trkpt>
      <trkpt lat="48.82341" lon="-0.52366">
        <ele>196.8</ele>
        <time>1989-12-31T00:48:43Z</time>
      </trkpt>
      <trkpt lat="48.82339" lon="-0.52342">
        <ele>196.8</ele>
        <time>1989-12-31T00:48:46Z</time>
      </trkpt>
      <trkpt lat="48.82149" lon="-0.52294">
        <ele>198.2</ele>
        <time>1989-12-31T00:49:26Z</time>
      </trkpt>
      <trkpt lat="48.82119" lon="-0.52167">
        <ele>202.4</ele>
        <time>1989-12-31T00:49:45Z</time>
      </trkpt>
      <trkpt lat="48.82086" lon="-0.52144">
        <ele>204.4</ele>
        <time>1989-12-31T00:49:52Z</time>
      </trkpt>
      <trkpt lat="48.8208" lon="-0.52117">
        <ele>205.8</ele>
        <time>1989-12-31T00:49:56Z</time>
      </trkpt>
      <trkpt lat="48.82113" lon="-0.52163">
        <ele>203.4</ele>
        <time>1989-12-31T00:50:05Z</time>
      </trkpt>
      <trkpt lat="48.82079" lon="-0.52119">
        <ele>203.4</ele>
        <time>1989-12-31T00:50:15Z</time>
      </trkpt>
      <trkpt lat="48.82089" lon="-0.52065">
        <ele>204.8</ele>
        <time>1989-12-31T00:50:22Z</time>
      </trkpt>
      <trkpt lat="48.82061" lon="-0.52023">
        <ele>206.4</ele>
        <time>1989-12-31T00:50:30Z</time>
      </trkpt>
      <trkpt lat="48.82035" lon="-0.52014">
        <ele>207.8</ele>
        <time>1989-12-31T00:50:36Z</time>
      </trkpt>
      <trkpt lat="48.82064" lon="-0.51886">
        <ele>216.4</ele>
        <time>1989-12-31T00:50:54Z</time>
      </trkpt>
      <trkpt lat="48.82103" lon="-0.51877">
        <ele>218.8</ele>
        <time>1989-12-31T00:51:03Z</time>
      </trkpt>
      <trkpt lat="48.82273" lon="-0.51901">
        <ele>211.6</ele>
        <time>1989-12-31T00:51:38Z</time>
      </trkpt>
      <trkpt lat="48.82364" lon="-0.51856">
        <ele>207.8</ele>
        <time>1989-12-31T00:51:58Z</time>
      </trkpt>
      <trkpt lat="48.82318" lon="-0.51796">
        <ele>210.6</ele>
        <time>1989-12-31T00:52:11Z</time>
      </trkpt>
      <trkpt lat="48.82295" lon="-0.5174">
        <ele>212.6</ele>
        <time>1989-12-31T00:52:20Z</time>
      </trkpt>
      <trkpt lat="48.82246" lon="-0.51682">
        <ele>216</ele>
        <time>1989-12-31T00:52:33Z</time>
      </trkpt>
      <trkpt lat="48.82225" lon="-0.51648">
        <ele>217.4</ele>
        <time>1989-12-31T00:52:39Z</time>
      </trkpt>
      <trkpt lat="48.82201" lon="-0.516">
        <ele>218.4</ele>
        <time>1989-12-31T00:52:47Z</time>
      </trkpt>
      <trkpt lat="48.82176" lon="-0.51495">
        <ele>216</ele>
        <time>1989-12-31T00:53:03Z</time>
      </trkpt>
      <trkpt lat="48.82196" lon="-0.51268">
        <ele>226.6</ele>
        <time>1989-12-31T00:53:34Z</time>
      </trkpt>
      <trkpt lat="48.82157" lon="-0.51187">
        <ele>229.8</ele>
        <time>1989-12-31T00:53:48Z</time>
      </trkpt>
      <trkpt lat="48.82089" lon="-0.51175">
        <ele>229</ele>
        <time>1989-12-31T00:54:02Z</time>
      </trkpt>
      <trkpt lat="48.81925" lon="-0.51205">
        <ele>232.8</ele>
        <time>1989-12-31T00:54:36Z</time>
      </trkpt>
      <trkpt lat="48.81818" lon="-0.51142">
        <ele>236.2</ele>
        <time>1989-12-31T00:55:00Z</time>
      </trkpt>
      <trkpt lat="48.81782" lon="-0.51107">
        <ele>236.6</ele>
        <time>1989-12-31T00:55:09Z</time>
      </trkpt>
      <trkpt lat="48.81744" lon="-0.51035">
        <ele>235.6</ele>
        <time>1989-12-31T00:55:21Z</time>
      </trkpt>
      <trkpt lat="48.81631" lon="-0.50918">
        <ele>234.6</ele>
        <time>1989-12-31T00:55:50Z</time>
      </trkpt>
      <trkpt lat="48.81521" lon="-0.50821">
        <ele>233.2</ele>
        <time>1989-12-31T00:56:16Z</time>
      </trkpt>
      <trkpt lat="48.81498" lon="-0.50845">
        <ele>233.2</ele>
        <time>1989-12-31T00:56:22Z</time>
      </trkpt>
      <trkpt lat="48.8147" lon="-0.5092">
        <ele>235.6</ele>
        <time>1989-12-31T00:56:34Z</time>
      </trkpt>
      <trkpt lat="48.81447" lon="-0.50995">
        <ele>235.6</ele>
        <time>1989-12-31T00:56:45Z</time>
      </trkpt>
      <trkpt lat="48.81427" lon="-0.51074">
        <ele>236.2</ele>
        <time>1989-12-31T00:56:57Z</time>
      </trkpt>
      <trkpt lat="48.81426" lon="-0.51158">
        <ele>238.6</ele>
        <time>1989-12-31T00:57:08Z</time>
      </trkpt>
      <trkpt lat="48.81404" lon="-0.51217">
        <ele>241</ele>
        <time>1989-12-31T00:57:17Z</time>
      </trkpt>
      <trkpt lat="48.81372" lon="-0.51287">
        <ele>241.4</ele>
        <time>1989-12-31T00:57:29Z</time>
      </trkpt>
      <trkpt lat="48.81264" lon="-0.51267">
        <ele>243.4</ele>
        <time>1989-12-31T00:57:52Z</time>
      </trkpt>
      <trkpt lat="48.81256" lon="-0.51289">
        <ele>243.8</ele>
        <time>1989-12-31T00:57:55Z</time>
      </trkpt>
      <trkpt lat="48.81254" lon="-0.51561">
        <ele>251.6</ele>
        <time>1989-12-31T00:58:32Z</time>
      </trkpt>
      <trkpt lat="48.81156" lon="-0.51561">
        <ele>251</ele>
        <time>1989-12-31T00:58:53Z</time>
      </trkpt>
      <trkpt lat="48.80968" lon="-0.51638">
        <ele>255.4</ele>
        <time>1989-12-31T00:59:33Z</time>
      </trkpt>
      <trkpt lat="48.80961" lon="-0.51637">
        <ele>255.4</ele>
        <time>1989-12-31T00:59:34Z</time>
      </trkpt>
      <trkpt lat="48.8086" lon="-0.51493">
        <ele>254</ele>
        <time>1989-12-31T01:00:03Z</time>
      </trkpt>
      <trkpt lat="48.80824" lon="-0.51388">
        <ele>254</ele>
        <time>1989-12-31T01:00:19Z</time>
      </trkpt>
      <trkpt lat="48.80726" lon="-0.51324">
        <ele>255.8</ele>
        <time>1989-12-31T01:00:42Z</time>
      </trkpt>
      <trkpt lat="48.8072" lon="-0.51323">
        <ele>254.8</ele>
        <time>1989-12-31T01:00:43Z</time>
      </trkpt>
      <trkpt lat="48.80733" lon="-0.51505">
        <ele>257.8</ele>
        <time>1989-12-31T01:01:08Z</time>
      </trkpt>
      <trkpt lat="48.80719" lon="-0.51646">
        <ele>262.6</ele>
        <time>1989-12-31T01:01:27Z</time>
      </trkpt>
      <trkpt lat="48.80736" lon="-0.51746">
        <ele>260.2</ele>
        <time>1989-12-31T01:01:41Z</time>
      </trkpt>
      <trkpt lat="48.80728" lon="-0.51767">
        <ele>260.6</ele>
        <time>1989-12-31T01:01:45Z</time>
      </trkpt>
      <trkpt lat="48.80624" lon="-0.5181">
        <ele>259.2</ele>
        <time>1989-12-31T01:02:07Z</time>
      </trkpt>
      <trkpt lat="48.8064" lon="-0.51914">
        <ele>256.4</ele>
        <time>1989-12-31T01:02:22Z</time>
      </trkpt>
      <trkpt lat="48.80627" lon="-0.51997">
        <ele>254</ele>
        <time>1989-12-31T01:02:33Z</time>
      </trkpt>
      <trkpt lat="48.80603" lon="-0.52086">
        <ele>250.6</ele>
        <time>1989-12-31T01:02:46Z</time>
      </trkpt>
      <trkpt lat="48.80609" lon="-0.52122">
        <ele>249.6</ele>
        <time>1989-12-31T01:02:52Z</time>
      </trkpt>
      <trkpt lat="48.80593" lon="-0.52267">
        <ele>242.4</ele>
        <time>1989-12-31T01:03:12Z</time>
      </trkpt>
      <trkpt lat="48.80621" lon="-0.52443">
        <ele>234.2</ele>
        <time>1989-12-31T01:03:36Z</time>
      </trkpt>
      <trkpt lat="48.80645" lon="-0.52487">
        <ele>233.8</ele>
        <time>1989-12-31T01:03:44Z</time>
      </trkpt>
      <trkpt lat="48.80644" lon="-0.52509">
        <ele>232.8</ele>
        <time>1989-12-31T01:03:47Z</time>
      </trkpt>
      <trkpt lat="48.80634" lon="-0.52524">
        <ele>230.4</ele>
        <time>1989-12-31T01:03:50Z</time>
      </trkpt>
      <trkpt lat="48.80584" lon="-0.52515">
        <ele>229.4</ele>
        <time>1989-12-31T01:04:01Z</time>
      </trkpt>
      <trkpt lat="48.80508" lon="-0.52457">
        <ele>232.8</ele>
        <time>1989-12-31T01:04:18Z</time>
      </trkpt>
      <trkpt lat="48.80343" lon="-0.5252">
        <ele>234.2</ele>
        <time>1989-12-31T01:04:54Z</time>
      </trkpt>
      <trkpt lat="48.80257" lon="-0.52508">
        <ele>238</ele>
        <time>1989-12-31T01:05:12Z</time>
      </trkpt>
      <trkpt lat="48.80118" lon="-0.52551">
        <ele>235.6</ele>
        <time>1989-12-31T01:05:41Z</time>
      </trkpt>
      <trkpt lat="48.80097" lon="-0.52484">
        <ele>237.6</ele>
        <time>1989-12-31T01:05:51Z</time>
      </trkpt>
      <trkpt lat="48.79975" lon="-0.525">
        <ele>234.6</ele>
        <time>1989-12-31T01:06:17Z</time>
      </trkpt>
      <trkpt lat="48.79809" lon="-0.52478">
        <ele>234.2</ele>
        <time>1989-12-31T01:06:51Z</time>
      </trkpt>
      <trkpt lat="48.79772" lon="-0.52448">
        <ele>234.6</ele>
        <time>1989-12-31T01:07:00Z</time>
      </trkpt>
      <trkpt lat="48.79754" lon="-0.5236">
        <ele>234.2</ele>
        <time>1989-12-31T01:07:13Z</time>
      </trkpt>
      <trkpt lat="48.79693" lon="-0.522">
        <ele>236.6</ele>
        <time>1989-12-31T01:07:38Z</time>
      </trkpt>
      <trkpt lat="48.79663" lon="-0.521">
        <ele>237.2</ele>
        <time>1989-12-31T01:07:53Z</time>
      </trkpt>
      <trkpt lat="48.79615" lon="-0.51962">
        <ele>236.6</ele>
        <time>1989-12-31T01:08:14Z</time>
      </trkpt>
      <trkpt lat="48.79608" lon="-0.51878">
        <ele>237.6</ele>
        <time>1989-12-31T01:08:26Z</time>
      </trkpt>
      <trkpt lat="48.79594" lon="-0.51828">
        <ele>237.2</ele>
        <time>1989-12-31T01:08:33Z</time>
      </trkpt>
      <trkpt lat="48.79417" lon="-0.51669">
        <ele>232.2</ele>
        <time>1989-12-31T01:09:16Z</time>
      </trkpt>
      <trkpt lat="48.79406" lon="-0.51656">
        <ele>231.8</ele>
        <time>1989-12-31T01:09:19Z</time>
      </trkpt>
      <trkpt lat="48.79316" lon="-0.51597">
        <ele>233.2</ele>
        <time>1989-12-31T01:09:39Z</time>
      </trkpt>
      <trkpt lat="48.79281" lon="-0.51519">
        <ele>235.2</ele>
        <time>1989-12-31T01:09:52Z</time>
      </trkpt>
      <trkpt lat="48.79389" lon="-0.51397">
        <ele>235.2</ele>
        <time>1989-12-31T01:10:20Z</time>
      </trkpt>
      <trkpt lat="48.79489" lon="-0.51265">
        <ele>233.8</ele>
        <time>1989-12-31T01:10:48Z</time>
      </trkpt>
      <trkpt lat="48.79476" lon="-0.51207">
        <ele>234.2</ele>
        <time>1989-12-31T01:10:56Z</time>
      </trkpt>
      <trkpt lat="48.79509" lon="-0.51155">
        <ele>236.2</ele>
        <time>1989-12-31T01:11:06Z</time>
      </trkpt>
      <trkpt lat="48.79509" lon="-0.51137">
        <ele>236.2</ele>
        <time>1989-12-31T01:11:08Z</time>
      </trkpt>
      <trkpt lat="48.7949" lon="-0.51076">
        <ele>237.6</ele>
        <time>1989-12-31T01:11:17Z</time>
      </trkpt>
      <trkpt lat="48.79465" lon="-0.51078">
        <ele>238</ele>
        <time>1989-12-31T01:11:23Z</time>
      </trkpt>
      <trkpt lat="48.79458" lon="-0.50857">
        <ele>242</ele>
        <time>1989-12-31T01:11:53Z</time>
      </trkpt>
      <trkpt lat="48.79455" lon="-0.50852">
        <ele>242</ele>
        <time>1989-12-31T01:11:54Z</time>
      </trkpt>
      <trkpt lat="48.79309" lon="-0.50861">
        <ele>239</ele>
        <time>1989-12-31T01:12:24Z</time>
      </trkpt>
      <trkpt lat="48.79082" lon="-0.50734">
        <ele>237.6</ele>
        <time>1989-12-31T01:13:14Z</time>
      </trkpt>
      <trkpt lat="48.78955" lon="-0.50677">
        <ele>233.8</ele>
        <time>1989-12-31T01:13:42Z</time>
      </trkpt>
      <trkpt lat="48.78716" lon="-0.50612">
        <ele>231.4</ele>
        <time>1989-12-31T01:14:32Z</time>
      </trkpt>
      <trkpt lat="48.78659" lon="-0.50462">
        <ele>232.8</ele>
        <time>1989-12-31T01:14:56Z</time>
      </trkpt>
      <trkpt lat="48.78633" lon="-0.50427">
        <ele>232.8</ele>
        <time>1989-12-31T01:15:03Z</time>
      </trkpt>
      <trkpt lat="48.78603" lon="-0.50388">
        <ele>231.8</ele>
        <time>1989-12-31T01:15:11Z</time>
      </trkpt>
      <trkpt lat="48.78452" lon="-0.50519">
        <ele>237.2</ele>
        <time>1989-12-31T01:15:47Z</time>
      </trkpt>
      <trkpt lat="48.78411" lon="-0.50697">
        <ele>234.6</ele>
        <time>1989-12-31T01:16:13Z</time>
      </trkpt>
      <trkpt lat="48.7838" lon="-0.50757">
        <ele>233.2</ele>
        <time>1989-12-31T01:16:24Z</time>
      </trkpt>
      <trkpt lat="48.78341" lon="-0.50795">
        <ele>233.8</ele>
        <time>1989-12-31T01:16:33Z</time>
      </trkpt>
      <trkpt lat="48.78128" lon="-0.50845">
        <ele>237.6</ele>
        <time>1989-12-31T01:17:18Z</time>
      </trkpt>
      <trkpt lat="48.78016" lon="-0.50782">
        <ele>242.8</ele>
        <time>1989-12-31T01:17:43Z</time>
      </trkpt>
      <trkpt lat="48.77932" lon="-0.508">
        <ele>244.8</ele>
        <time>1989-12-31T01:18:00Z</time>
      </trkpt>
      <trkpt lat="48.77835" lon="-0.50812">
        <ele>242.4</ele>
        <time>1989-12-31T01:18:21Z</time>
      </trkpt>
      <trkpt lat="48.77812" lon="-0.51244">
        <ele>232.2</ele>
        <time>1989-12-31T01:19:20Z</time>
      </trkpt>
      <trkpt lat="48.77734" lon="-0.51537">
        <ele>232.2</ele>
        <time>1989-12-31T01:20:03Z</time>
      </trkpt>
      <trkpt lat="48.77723" lon="-0.51635">
        <ele>231.4</ele>
        <time>1989-12-31T01:20:17Z</time>
      </trkpt>
      <trkpt lat="48.77684" lon="-0.51649">
        <ele>231.4</ele>
        <time>1989-12-31T01:20:25Z</time>
      </trkpt>
      <trkpt lat="48.77643" lon="-0.51753">
        <ele>230.4</ele>
        <time>1989-12-31T01:20:42Z</time>
      </trkpt>
      <trkpt lat="48.77778" lon="-0.52072">
        <ele>225.6</ele>
        <time>1989-12-31T01:21:34Z</time>
      </trkpt>
      <trkpt lat="48.77806" lon="-0.52239">
        <ele>223.6</ele>
        <time>1989-12-31T01:21:57Z</time>
      </trkpt>
      <trkpt lat="48.77811" lon="-0.52307">
        <ele>224.2</ele>
        <time>1989-12-31T01:22:07Z</time>
      </trkpt>
      <trkpt lat="48.7782" lon="-0.52392">
        <ele>220.8</ele>
        <time>1989-12-31T01:22:18Z</time>
      </trkpt>
      <trkpt lat="48.77848" lon="-0.52537">
        <ele>217</ele>
        <time>1989-12-31T01:22:39Z</time>
      </trkpt>
      <trkpt lat="48.77823" lon="-0.52799">
        <ele>213.6</ele>
        <time>1989-12-31T01:23:15Z</time>
      </trkpt>
      <trkpt lat="48.77844" lon="-0.53011">
        <ele>217.8</ele>
        <time>1989-12-31T01:23:45Z</time>
      </trkpt>
      <trkpt lat="48.77549" lon="-0.53231">
        <ele>226</ele>
        <time>1989-12-31T01:24:53Z</time>
      </trkpt>
      <trkpt lat="48.7727" lon="-0.53359">
        <ele>243.4</ele>
        <time>1989-12-31T01:25:53Z</time>
      </trkpt>
      <trkpt lat="48.77201" lon="-0.53427">
        <ele>249.2</ele>
        <time>1989-12-31T01:26:10Z</time>
      </trkpt>
      <trkpt lat="48.77113" lon="-0.53572">
        <ele>255.8</ele>
        <time>1989-12-31T01:26:37Z</time>
      </trkpt>
      <trkpt lat="48.76941" lon="-0.53857">
        <ele>257.8</ele>
        <time>1989-12-31T01:27:30Z</time>
      </trkpt>
      <trkpt lat="48.76813" lon="-0.54011">
        <ele>259.6</ele>
        <time>1989-12-31T01:28:04Z</time>
      </trkpt>
      <trkpt lat="48.76759" lon="-0.54057">
        <ele>260.2</ele>
        <time>1989-12-31T01:28:17Z</time>
      </trkpt>
      <trkpt lat="48.76521" lon="-0.54205">
        <ele>274.2</ele>
        <time>1989-12-31T01:29:10Z</time>
      </trkpt>
      <trkpt lat="48.7627" lon="-0.54373">
        <ele>278.4</ele>
        <time>1989-12-31T01:30:07Z</time>
      </trkpt>
      <trkpt lat="48.76194" lon="-0.54392">
        <ele>278.4</ele>
        <time>1989-12-31T01:30:23Z</time>
      </trkpt>
      <trkpt lat="48.76053" lon="-0.54374">
        <ele>277.4</ele>
        <time>1989-12-31T01:30:53Z</time>
      </trkpt>
      <trkpt lat="48.75935" lon="-0.54407">
        <ele>276</ele>
        <time>1989-12-31T01:31:18Z</time>
      </trkpt>
      <trkpt lat="48.75793" lon="-0.54445">
        <ele>265.4</ele>
        <time>1989-12-31T01:31:47Z</time>
      </trkpt>
      <trkpt lat="48.7565" lon="-0.54573">
        <ele>262</ele>
        <time>1989-12-31T01:32:22Z</time>
      </trkpt>
      <trkpt lat="48.75484" lon="-0.54728">
        <ele>248.6</ele>
        <time>1989-12-31T01:33:02Z</time>
      </trkpt>
      <trkpt lat="48.75386" lon="-0.54879">
        <ele>244.4</ele>
        <time>1989-12-31T01:33:31Z</time>
      </trkpt>
      <trkpt lat="48.75188" lon="-0.54982">
        <ele>235.6</ele>
        <time>1989-12-31T01:34:15Z</time>
      </trkpt>
      <trkpt lat="48.75114" lon="-0.55002">
        <ele>232.2</ele>
        <time>1989-12-31T01:34:31Z</time>
      </trkpt>
      <trkpt lat="48.75048" lon="-0.56155">
        <ele>219.8</ele>
        <time>1989-12-31T01:37:09Z</time>
      </trkpt>
      <trkpt lat="48.75031" lon="-0.56446">
        <ele>215.4</ele>
        <time>1989-12-31T01:37:49Z</time>
      </trkpt>
      <trkpt lat="48.75023" lon="-0.56576">
        <ele>211.2</ele>
        <time>1989-12-31T01:38:07Z</time>
      </trkpt>
      <trkpt lat="48.75034" lon="-0.56658">
        <ele>211.2</ele>
        <time>1989-12-31T01:38:18Z</time>
      </trkpt>
      <trkpt lat="48.74918" lon="-0.56819">
        <ele>200.6</ele>
        <time>1989-12-31T01:38:51Z</time>
      </trkpt>
      <trkpt lat="48.7489" lon="-0.5686">
        <ele>197.6</ele>
        <time>1989-12-31T01:38:59Z</time>
      </trkpt>
      <trkpt lat="48.74782" lon="-0.57207">
        <ele>189.6</ele>
        <time>1989-12-31T01:39:52Z</time>
      </trkpt>
      <trkpt lat="48.74796" lon="-0.57217">
        <ele>188</ele>
        <time>1989-12-31T01:39:55Z</time>
      </trkpt>
    </trkseg>
  </trk>
</gpx>